FTTJ

N'Djamena International Airport

N'Djamena, Chad
METAR FTTJ 162200Z 33006KT CAVOK 18/M05 Q1013 NOSIG
Observed Flight Rules
Jan-16 @ 22:00 UTC (31 minutes ago) Visual Flight Rules
Wind Visibility Clouds
330° at 6 knots 10,000+ meters
  • Clear skies
Temperatures Readings
Current 18°C / 64°F
Dewpoint -5°C / 23°F
Humidity 21%
Altimeter 29.91" Hg
Pressure 1012.92 hPa
Elevation 295
METAR FTTJ 162200Z 33006KT CAVOK 18/M05 Q1013 NOSIG
Observed Flight Rules
Jan-16 @ 22:00 UTC
(31 minutes ago)
VFR
Wind Visibility
330° at 6 knots 10,000+ meters
Clouds
  • Clear skies
Temperature Dewpoint
18°C / 64°F -5°C / 23°F
Humidity Altimeter Pressure
21% 29.91" Hg 1012.92 hPa